Terminal Aerodrome Forecast
Issued by NWS

Home | Current Version | Previous Version | Text Only | Print | Product List | Glossary On
Versions: 1 2 3 4 5 6 7 8 9 10 11 12 13 14 15 16
000
FTUS45 KTFX 232300
TAFBZN
TAF
KBZN 232335Z 2400/2424 22022G32KT P6SM SCT060 BKN090
     FM240200 25010KT P6SM BKN100
     FM241900 22015G25KT P6SM VCSH BKN045 OVC090=

USA.gov is the U.S. government's official web portal to all federal, state and local government web resources and services.